sensor_id;sensor_type;location;lat;lon;timestamp;P1;durP1;ratioP1;P2;durP2;ratioP2
72621;SDS011;60665;53.506;9.582;2022-10-22T00:01:25;15.98;;;8.10;;
72621;SDS011;60665;53.506;9.582;2022-10-22T00:03:52;14.23;;;7.78;;
72621;SDS011;60665;53.506;9.582;2022-10-22T00:06:17;18.40;;;7.95;;
72621;SDS011;60665;53.506;9.582;2022-10-22T00:08:43;15.90;;;8.52;;
72621;SDS011;60665;53.506;9.582;2022-10-22T00:11:09;16.80;;;7.88;;
72621;SDS011;60665;53.506;9.582;2022-10-22T00:13:35;14.95;;;8.98;;
72621;SDS011;60665;53.506;9.582;2022-10-22T00:16:01;13.98;;;8.07;;
72621;SDS011;60665;53.506;9.582;2022-10-22T00:18:26;17.25;;;8.25;;
72621;SDS011;60665;53.506;9.582;2022-10-22T00:20:52;15.70;;;8.77;;
72621;SDS011;60665;53.506;9.582;2022-10-22T00:23:17;15.43;;;8.55;;
72621;SDS011;60665;53.506;9.582;2022-10-22T00:25:42;15.07;;;8.32;;
72621;SDS011;60665;53.506;9.582;2022-10-22T00:28:07;23.70;;;8.00;;
72621;SDS011;60665;53.506;9.582;2022-10-22T00:30:33;12.00;;;7.32;;
72621;SDS011;60665;53.506;9.582;2022-10-22T00:32:58;11.23;;;7.45;;
72621;SDS011;60665;53.506;9.582;2022-10-22T00:35:24;12.85;;;7.70;;
72621;SDS011;60665;53.506;9.582;2022-10-22T00:37:49;12.85;;;7.25;;
72621;SDS011;60665;53.506;9.582;2022-10-22T00:40:14;12.57;;;6.40;;
72621;SDS011;60665;53.506;9.582;2022-10-22T00:42:40;11.38;;;6.25;;
72621;SDS011;60665;53.506;9.582;2022-10-22T00:47:41;9.30;;;5.68;;
72621;SDS011;60665;53.506;9.582;2022-10-22T00:50:14;10.43;;;5.45;;
72621;SDS011;60665;53.506;9.582;2022-10-22T00:52:42;9.30;;;5.60;;
72621;SDS011;60665;53.506;9.582;2022-10-22T00:55:07;9.75;;;4.80;;
72621;SDS011;60665;53.506;9.582;2022-10-22T00:57:33;10.40;;;5.72;;
72621;SDS011;60665;53.506;9.582;2022-10-22T00:59:59;11.27;;;4.82;;
72621;SDS011;60665;53.506;9.582;2022-10-22T01:02:25;11.25;;;5.43;;
72621;SDS011;60665;53.506;9.582;2022-10-22T01:04:50;11.57;;;5.22;;
72621;SDS011;60665;53.506;9.582;2022-10-22T01:07:16;10.48;;;5.25;;
72621;SDS011;60665;53.506;9.582;2022-10-22T01:20:39;11.73;;;5.47;;
72621;SDS011;60665;53.506;9.582;2022-10-22T01:25:57;10.27;;;4.97;;
72621;SDS011;60665;53.506;9.582;2022-10-22T01:31:29;7.72;;;5.00;;
72621;SDS011;60665;53.506;9.582;2022-10-22T01:33:57;10.02;;;5.45;;
72621;SDS011;60665;53.506;9.582;2022-10-22T01:36:23;8.18;;;4.28;;
72621;SDS011;60665;53.506;9.582;2022-10-22T01:38:49;9.27;;;4.00;;
72621;SDS011;60665;53.506;9.582;2022-10-22T01:41:15;8.10;;;4.60;;
72621;SDS011;60665;53.506;9.582;2022-10-22T01:43:41;7.70;;;4.35;;
72621;SDS011;60665;53.506;9.582;2022-10-22T01:46:08;10.25;;;4.53;;
72621;SDS011;60665;53.506;9.582;2022-10-22T01:51:02;8.35;;;4.88;;
72621;SDS011;60665;53.506;9.582;2022-10-22T02:03:39;11.65;;;4.72;;
72621;SDS011;60665;53.506;9.582;2022-10-22T02:06:16;12.80;;;4.68;;
72621;SDS011;60665;53.506;9.582;2022-10-22T02:08:44;15.27;;;4.22;;
72621;SDS011;60665;53.506;9.582;2022-10-22T02:11:11;14.40;;;3.90;;
72621;SDS011;60665;53.506;9.582;2022-10-22T02:13:42;6.93;;;3.22;;
72621;SDS011;60665;53.506;9.582;2022-10-22T02:16:09;10.32;;;3.88;;
72621;SDS011;60665;53.506;9.582;2022-10-22T02:18:41;5.15;;;3.00;;
72621;SDS011;60665;53.506;9.582;2022-10-22T02:21:08;9.05;;;3.50;;
72621;SDS011;60665;53.506;9.582;2022-10-22T02:23:33;9.40;;;3.35;;
72621;SDS011;60665;53.506;9.582;2022-10-22T02:26:01;7.88;;;3.05;;
72621;SDS011;60665;53.506;9.582;2022-10-22T02:28:32;6.30;;;3.33;;
72621;SDS011;60665;53.506;9.582;2022-10-22T02:31:14;8.50;;;3.70;;
72621;SDS011;60665;53.506;9.582;2022-10-22T02:33:42;10.98;;;4.47;;
72621;SDS011;60665;53.506;9.582;2022-10-22T02:36:10;10.93;;;4.13;;
72621;SDS011;60665;53.506;9.582;2022-10-22T02:38:36;7.93;;;4.35;;
72621;SDS011;60665;53.506;9.582;2022-10-22T02:41:02;8.57;;;4.28;;
72621;SDS011;60665;53.506;9.582;2022-10-22T02:43:28;11.13;;;4.43;;
72621;SDS011;60665;53.506;9.582;2022-10-22T02:45:53;8.52;;;4.30;;
72621;SDS011;60665;53.506;9.582;2022-10-22T02:48:19;8.88;;;3.67;;
72621;SDS011;60665;53.506;9.582;2022-10-22T02:50:44;8.32;;;4.28;;
72621;SDS011;60665;53.506;9.582;2022-10-22T02:53:09;9.50;;;4.40;;
72621;SDS011;60665;53.506;9.582;2022-10-22T02:55:35;9.18;;;5.10;;
72621;SDS011;60665;53.506;9.582;2022-10-22T02:58:00;12.52;;;5.15;;
72621;SDS011;60665;53.506;9.582;2022-10-22T03:00:26;17.60;;;5.30;;
72621;SDS011;60665;53.506;9.582;2022-10-22T03:02:52;10.25;;;5.07;;
72621;SDS011;60665;53.506;9.582;2022-10-22T03:05:17;12.60;;;4.57;;
72621;SDS011;60665;53.506;9.582;2022-10-22T03:07:43;13.25;;;4.28;;
72621;SDS011;60665;53.506;9.582;2022-10-22T03:10:08;11.13;;;4.50;;
72621;SDS011;60665;53.506;9.582;2022-10-22T03:12:33;13.50;;;4.47;;
72621;SDS011;60665;53.506;9.582;2022-10-22T03:14:59;12.52;;;4.82;;
72621;SDS011;60665;53.506;9.582;2022-10-22T03:17:24;9.35;;;4.68;;
72621;SDS011;60665;53.506;9.582;2022-10-22T03:19:50;9.20;;;4.45;;
72621;SDS011;60665;53.506;9.582;2022-10-22T03:22:21;13.07;;;4.15;;
72621;SDS011;60665;53.506;9.582;2022-10-22T03:24:50;8.93;;;4.30;;
72621;SDS011;60665;53.506;9.582;2022-10-22T03:27:19;9.93;;;4.53;;
72621;SDS011;60665;53.506;9.582;2022-10-22T03:29:46;28.45;;;5.20;;
72621;SDS011;60665;53.506;9.582;2022-10-22T03:32:12;12.18;;;5.00;;
72621;SDS011;60665;53.506;9.582;2022-10-22T03:34:38;11.85;;;4.50;;
72621;SDS011;60665;53.506;9.582;2022-10-22T03:37:03;9.70;;;4.30;;
72621;SDS011;60665;53.506;9.582;2022-10-22T03:39:29;7.20;;;4.32;;
72621;SDS011;60665;53.506;9.582;2022-10-22T03:41:55;10.68;;;4.95;;
72621;SDS011;60665;53.506;9.582;2022-10-22T03:44:21;12.43;;;5.30;;
72621;SDS011;60665;53.506;9.582;2022-10-22T03:46:47;12.55;;;6.03;;
72621;SDS011;60665;53.506;9.582;2022-10-22T03:49:13;11.50;;;5.88;;
72621;SDS011;60665;53.506;9.582;2022-10-22T03:51:38;16.15;;;6.38;;
72621;SDS011;60665;53.506;9.582;2022-10-22T03:54:03;12.05;;;6.35;;
72621;SDS011;60665;53.506;9.582;2022-10-22T03:56:29;17.10;;;6.80;;
72621;SDS011;60665;53.506;9.582;2022-10-22T03:58:55;13.40;;;6.50;;
72621;SDS011;60665;53.506;9.582;2022-10-22T04:01:21;11.07;;;5.80;;
72621;SDS011;60665;53.506;9.582;2022-10-22T04:03:47;13.90;;;6.75;;
72621;SDS011;60665;53.506;9.582;2022-10-22T04:06:12;12.65;;;6.45;;
72621;SDS011;60665;53.506;9.582;2022-10-22T04:08:38;13.18;;;7.18;;
72621;SDS011;60665;53.506;9.582;2022-10-22T04:11:04;15.35;;;7.45;;
72621;SDS011;60665;53.506;9.582;2022-10-22T04:13:30;13.57;;;7.28;;
72621;SDS011;60665;53.506;9.582;2022-10-22T04:16:04;14.70;;;7.78;;
72621;SDS011;60665;53.506;9.582;2022-10-22T04:18:40;12.88;;;6.68;;
72621;SDS011;60665;53.506;9.582;2022-10-22T04:21:06;14.93;;;8.27;;
72621;SDS011;60665;53.506;9.582;2022-10-22T04:23:33;13.25;;;7.43;;
72621;SDS011;60665;53.506;9.582;2022-10-22T04:25:59;12.20;;;7.18;;
72621;SDS011;60665;53.506;9.582;2022-10-22T04:28:25;14.07;;;7.47;;
72621;SDS011;60665;53.506;9.582;2022-10-22T04:30:50;12.13;;;7.15;;
72621;SDS011;60665;53.506;9.582;2022-10-22T04:33:16;15.55;;;8.15;;
72621;SDS011;60665;53.506;9.582;2022-10-22T04:35:41;13.73;;;7.95;;
72621;SDS011;60665;53.506;9.582;2022-10-22T04:38:06;11.48;;;7.22;;
72621;SDS011;60665;53.506;9.582;2022-10-22T04:40:32;17.40;;;8.90;;
72621;SDS011;60665;53.506;9.582;2022-10-22T04:42:57;14.20;;;7.88;;
72621;SDS011;60665;53.506;9.582;2022-10-22T04:45:22;15.10;;;7.32;;
72621;SDS011;60665;53.506;9.582;2022-10-22T04:47:48;13.20;;;7.65;;
72621;SDS011;60665;53.506;9.582;2022-10-22T04:50:13;12.95;;;7.20;;
72621;SDS011;60665;53.506;9.582;2022-10-22T04:52:39;12.85;;;7.13;;
72621;SDS011;60665;53.506;9.582;2022-10-22T04:55:04;16.25;;;7.35;;
72621;SDS011;60665;53.506;9.582;2022-10-22T04:57:30;16.08;;;7.50;;
72621;SDS011;60665;53.506;9.582;2022-10-22T04:59:55;13.07;;;6.70;;
72621;SDS011;60665;53.506;9.582;2022-10-22T05:02:21;12.15;;;6.88;;
72621;SDS011;60665;53.506;9.582;2022-10-22T05:04:46;15.77;;;6.95;;
72621;SDS011;60665;53.506;9.582;2022-10-22T05:07:11;10.23;;;6.25;;
72621;SDS011;60665;53.506;9.582;2022-10-22T05:09:37;10.93;;;6.30;;
72621;SDS011;60665;53.506;9.582;2022-10-22T05:12:02;11.70;;;6.72;;
72621;SDS011;60665;53.506;9.582;2022-10-22T05:14:27;12.65;;;6.78;;
72621;SDS011;60665;53.506;9.582;2022-10-22T05:16:53;13.90;;;7.47;;
72621;SDS011;60665;53.506;9.582;2022-10-22T05:19:23;12.30;;;6.90;;
72621;SDS011;60665;53.506;9.582;2022-10-22T05:21:52;12.23;;;6.32;;
72621;SDS011;60665;53.506;9.582;2022-10-22T05:24:19;11.10;;;7.10;;
72621;SDS011;60665;53.506;9.582;2022-10-22T05:26:44;11.00;;;6.43;;
72621;SDS011;60665;53.506;9.582;2022-10-22T05:29:10;11.48;;;6.72;;
72621;SDS011;60665;53.506;9.582;2022-10-22T05:31:35;13.05;;;7.15;;
72621;SDS011;60665;53.506;9.582;2022-10-22T05:34:00;10.82;;;6.18;;
72621;SDS011;60665;53.506;9.582;2022-10-22T05:36:26;13.35;;;7.10;;
72621;SDS011;60665;53.506;9.582;2022-10-22T05:38:51;11.65;;;7.00;;
72621;SDS011;60665;53.506;9.582;2022-10-22T05:41:18;10.80;;;6.38;;
72621;SDS011;60665;53.506;9.582;2022-10-22T05:43:48;12.32;;;6.15;;
72621;SDS011;60665;53.506;9.582;2022-10-22T05:46:17;17.33;;;6.85;;
72621;SDS011;60665;53.506;9.582;2022-10-22T05:48:47;11.23;;;6.57;;
72621;SDS011;60665;53.506;9.582;2022-10-22T05:51:13;12.98;;;6.90;;
72621;SDS011;60665;53.506;9.582;2022-10-22T05:53:40;11.43;;;6.60;;
72621;SDS011;60665;53.506;9.582;2022-10-22T05:56:13;10.75;;;6.60;;
72621;SDS011;60665;53.506;9.582;2022-10-22T05:58:40;15.73;;;7.65;;
72621;SDS011;60665;53.506;9.582;2022-10-22T06:01:07;14.45;;;7.70;;
72621;SDS011;60665;53.506;9.582;2022-10-22T06:04:03;13.55;;;7.90;;
72621;SDS011;60665;53.506;9.582;2022-10-22T06:08:55;15.07;;;8.20;;
72621;SDS011;60665;53.506;9.582;2022-10-22T06:11:21;12.20;;;7.70;;
72621;SDS011;60665;53.506;9.582;2022-10-22T06:13:47;14.65;;;7.57;;
72621;SDS011;60665;53.506;9.582;2022-10-22T06:16:13;12.50;;;7.80;;
72621;SDS011;60665;53.506;9.582;2022-10-22T06:18:39;14.63;;;8.07;;
72621;SDS011;60665;53.506;9.582;2022-10-22T06:21:06;14.57;;;8.88;;
72621;SDS011;60665;53.506;9.582;2022-10-22T06:25:58;14.25;;;8.48;;
72621;SDS011;60665;53.506;9.582;2022-10-22T06:28:24;13.40;;;8.23;;
72621;SDS011;60665;53.506;9.582;2022-10-22T06:30:49;13.18;;;8.32;;
72621;SDS011;60665;53.506;9.582;2022-10-22T06:33:15;14.32;;;7.03;;
72621;SDS011;60665;53.506;9.582;2022-10-22T06:35:40;14.63;;;8.10;;
72621;SDS011;60665;53.506;9.582;2022-10-22T06:38:05;14.82;;;8.18;;
72621;SDS011;60665;53.506;9.582;2022-10-22T06:40:31;15.02;;;8.50;;
72621;SDS011;60665;53.506;9.582;2022-10-22T06:42:59;18.90;;;8.40;;
72621;SDS011;60665;53.506;9.582;2022-10-22T06:47:50;17.73;;;8.63;;
72621;SDS011;60665;53.506;9.582;2022-10-22T06:50:16;14.30;;;8.70;;
72621;SDS011;60665;53.506;9.582;2022-10-22T06:52:41;17.25;;;9.38;;
72621;SDS011;60665;53.506;9.582;2022-10-22T06:55:07;18.75;;;10.38;;
72621;SDS011;60665;53.506;9.582;2022-10-22T06:57:32;17.58;;;9.30;;
72621;SDS011;60665;53.506;9.582;2022-10-22T06:59:58;15.30;;;9.43;;
72621;SDS011;60665;53.506;9.582;2022-10-22T07:02:23;17.98;;;9.40;;
72621;SDS011;60665;53.506;9.582;2022-10-22T07:04:48;16.60;;;8.82;;
72621;SDS011;60665;53.506;9.582;2022-10-22T07:07:14;15.18;;;8.73;;
72621;SDS011;60665;53.506;9.582;2022-10-22T07:09:39;17.42;;;9.48;;
72621;SDS011;60665;53.506;9.582;2022-10-22T07:12:05;16.83;;;8.88;;
72621;SDS011;60665;53.506;9.582;2022-10-22T07:14:30;15.18;;;9.77;;
72621;SDS011;60665;53.506;9.582;2022-10-22T07:16:56;17.05;;;9.48;;
72621;SDS011;60665;53.506;9.582;2022-10-22T07:19:21;17.42;;;9.35;;
72621;SDS011;60665;53.506;9.582;2022-10-22T07:21:46;22.02;;;10.90;;
72621;SDS011;60665;53.506;9.582;2022-10-22T07:24:12;21.45;;;12.00;;
72621;SDS011;60665;53.506;9.582;2022-10-22T07:26:37;24.25;;;12.45;;
72621;SDS011;60665;53.506;9.582;2022-10-22T07:29:03;20.73;;;11.63;;
72621;SDS011;60665;53.506;9.582;2022-10-22T07:31:29;26.40;;;10.93;;
72621;SDS011;60665;53.506;9.582;2022-10-22T07:33:55;20.10;;;11.70;;
72621;SDS011;60665;53.506;9.582;2022-10-22T07:36:21;19.00;;;10.93;;
72621;SDS011;60665;53.506;9.582;2022-10-22T07:38:47;20.70;;;10.60;;
72621;SDS011;60665;53.506;9.582;2022-10-22T07:41:14;18.50;;;10.15;;
72621;SDS011;60665;53.506;9.582;2022-10-22T07:43:41;19.88;;;10.80;;
72621;SDS011;60665;53.506;9.582;2022-10-22T07:46:06;23.27;;;10.82;;
72621;SDS011;60665;53.506;9.582;2022-10-22T07:48:33;18.08;;;10.00;;
72621;SDS011;60665;53.506;9.582;2022-10-22T07:50:59;17.75;;;10.02;;
72621;SDS011;60665;53.506;9.582;2022-10-22T07:53:25;17.08;;;9.73;;
72621;SDS011;60665;53.506;9.582;2022-10-22T07:55:50;20.67;;;9.93;;
72621;SDS011;60665;53.506;9.582;2022-10-22T07:58:16;17.50;;;9.98;;
72621;SDS011;60665;53.506;9.582;2022-10-22T08:00:42;18.00;;;9.85;;
72621;SDS011;60665;53.506;9.582;2022-10-22T08:03:09;22.88;;;9.50;;
72621;SDS011;60665;53.506;9.582;2022-10-22T08:05:35;18.88;;;9.90;;
72621;SDS011;60665;53.506;9.582;2022-10-22T08:08:00;15.57;;;9.32;;
72621;SDS011;60665;53.506;9.582;2022-10-22T08:10:26;18.48;;;8.80;;
72621;SDS011;60665;53.506;9.582;2022-10-22T08:12:51;13.32;;;8.48;;
72621;SDS011;60665;53.506;9.582;2022-10-22T08:15:16;14.02;;;7.57;;
72621;SDS011;60665;53.506;9.582;2022-10-22T08:17:42;15.45;;;8.70;;
72621;SDS011;60665;53.506;9.582;2022-10-22T08:20:07;14.75;;;8.15;;
72621;SDS011;60665;53.506;9.582;2022-10-22T08:22:33;13.23;;;7.68;;
72621;SDS011;60665;53.506;9.582;2022-10-22T08:24:58;14.48;;;7.47;;
72621;SDS011;60665;53.506;9.582;2022-10-22T08:27:24;13.60;;;7.60;;
72621;SDS011;60665;53.506;9.582;2022-10-22T08:29:49;14.07;;;6.75;;
72621;SDS011;60665;53.506;9.582;2022-10-22T08:32:15;13.43;;;7.75;;
72621;SDS011;60665;53.506;9.582;2022-10-22T08:34:40;14.60;;;7.20;;
72621;SDS011;60665;53.506;9.582;2022-10-22T08:37:06;14.77;;;7.18;;
72621;SDS011;60665;53.506;9.582;2022-10-22T08:39:32;13.05;;;6.47;;
72621;SDS011;60665;53.506;9.582;2022-10-22T08:49:40;11.20;;;5.83;;
72621;SDS011;60665;53.506;9.582;2022-10-22T08:52:07;10.65;;;6.32;;
72621;SDS011;60665;53.506;9.582;2022-10-22T08:54:39;10.27;;;5.55;;
72621;SDS011;60665;53.506;9.582;2022-10-22T08:59:59;14.93;;;5.75;;
72621;SDS011;60665;53.506;9.582;2022-10-22T09:07:43;9.73;;;5.18;;
72621;SDS011;60665;53.506;9.582;2022-10-22T09:10:13;9.77;;;5.40;;
72621;SDS011;60665;53.506;9.582;2022-10-22T09:12:39;10.68;;;5.40;;
72621;SDS011;60665;53.506;9.582;2022-10-22T09:15:04;10.88;;;4.88;;
72621;SDS011;60665;53.506;9.582;2022-10-22T09:20:13;10.73;;;4.95;;
72621;SDS011;60665;53.506;9.582;2022-10-22T09:25:25;8.88;;;4.55;;
72621;SDS011;60665;53.506;9.582;2022-10-22T09:27:52;9.32;;;4.80;;
72621;SDS011;60665;53.506;9.582;2022-10-22T09:30:23;10.05;;;4.38;;
72621;SDS011;60665;53.506;9.582;2022-10-22T09:32:50;9.35;;;4.50;;
72621;SDS011;60665;53.506;9.582;2022-10-22T09:35:20;9.90;;;4.40;;
72621;SDS011;60665;53.506;9.582;2022-10-22T09:37:48;9.45;;;3.90;;
72621;SDS011;60665;53.506;9.582;2022-10-22T09:40:16;11.98;;;4.85;;
72621;SDS011;60665;53.506;9.582;2022-10-22T09:42:42;8.90;;;3.92;;
72621;SDS011;60665;53.506;9.582;2022-10-22T09:45:19;7.88;;;4.13;;
72621;SDS011;60665;53.506;9.582;2022-10-22T09:47:49;8.30;;;3.47;;
72621;SDS011;60665;53.506;9.582;2022-10-22T09:50:25;8.52;;;3.78;;
72621;SDS011;60665;53.506;9.582;2022-10-22T09:55:48;7.22;;;2.63;;
72621;SDS011;60665;53.506;9.582;2022-10-22T09:58:21;8.88;;;3.40;;
72621;SDS011;60665;53.506;9.582;2022-10-22T10:00:51;7.78;;;3.08;;
72621;SDS011;60665;53.506;9.582;2022-10-22T10:03:22;7.10;;;2.80;;
72621;SDS011;60665;53.506;9.582;2022-10-22T10:05:53;6.07;;;2.67;;
72621;SDS011;60665;53.506;9.582;2022-10-22T10:08:21;8.45;;;2.95;;
72621;SDS011;60665;53.506;9.582;2022-10-22T10:16:09;9.68;;;3.10;;
72621;SDS011;60665;53.506;9.582;2022-10-22T10:21:22;10.48;;;3.63;;
72621;SDS011;60665;53.506;9.582;2022-10-22T10:32:18;9.27;;;3.67;;
72621;SDS011;60665;53.506;9.582;2022-10-22T10:37:48;12.52;;;4.45;;
72621;SDS011;60665;53.506;9.582;2022-10-22T10:40:39;9.10;;;3.15;;
72621;SDS011;60665;53.506;9.582;2022-10-22T10:46:06;7.25;;;3.20;;
72621;SDS011;60665;53.506;9.582;2022-10-22T10:54:03;6.50;;;2.92;;
72621;SDS011;60665;53.506;9.582;2022-10-22T10:57:03;6.68;;;3.05;;
72621;SDS011;60665;53.506;9.582;2022-10-22T11:08:20;5.85;;;2.40;;
72621;SDS011;60665;53.506;9.582;2022-10-22T11:10:52;7.68;;;2.33;;
72621;SDS011;60665;53.506;9.582;2022-10-22T11:13:42;6.30;;;1.80;;
72621;SDS011;60665;53.506;9.582;2022-10-22T11:21:33;9.55;;;2.10;;
72621;SDS011;60665;53.506;9.582;2022-10-22T11:24:26;10.50;;;2.15;;
72621;SDS011;60665;53.506;9.582;2022-10-22T11:26:56;6.47;;;2.30;;
72621;SDS011;60665;53.506;9.582;2022-10-22T11:29:42;9.52;;;2.30;;
72621;SDS011;60665;53.506;9.582;2022-10-22T11:32:16;6.95;;;2.30;;
72621;SDS011;60665;53.506;9.582;2022-10-22T11:34:47;7.38;;;2.25;;
72621;SDS011;60665;53.506;9.582;2022-10-22T11:37:18;6.32;;;2.30;;
72621;SDS011;60665;53.506;9.582;2022-10-22T11:39:50;7.63;;;2.28;;
72621;SDS011;60665;53.506;9.582;2022-10-22T11:42:31;7.40;;;2.65;;
72621;SDS011;60665;53.506;9.582;2022-10-22T11:45:06;6.65;;;2.10;;
72621;SDS011;60665;53.506;9.582;2022-10-22T11:50:55;6.63;;;2.20;;
72621;SDS011;60665;53.506;9.582;2022-10-22T11:55:55;7.35;;;2.20;;
72621;SDS011;60665;53.506;9.582;2022-10-22T11:58:42;8.05;;;2.65;;
72621;SDS011;60665;53.506;9.582;2022-10-22T12:08:43;6.13;;;2.35;;
72621;SDS011;60665;53.506;9.582;2022-10-22T12:21:47;7.50;;;2.20;;
72621;SDS011;60665;53.506;9.582;2022-10-22T12:24:18;8.50;;;2.30;;
72621;SDS011;60665;53.506;9.582;2022-10-22T12:26:44;7.57;;;2.30;;
72621;SDS011;60665;53.506;9.582;2022-10-22T12:29:11;6.70;;;2.90;;
72621;SDS011;60665;53.506;9.582;2022-10-22T12:31:38;8.20;;;3.03;;
72621;SDS011;60665;53.506;9.582;2022-10-22T12:34:05;10.30;;;2.90;;
72621;SDS011;60665;53.506;9.582;2022-10-22T12:36:32;10.95;;;2.80;;
72621;SDS011;60665;53.506;9.582;2022-10-22T12:38:59;9.23;;;2.60;;
72621;SDS011;60665;53.506;9.582;2022-10-22T12:41:32;7.30;;;2.22;;
72621;SDS011;60665;53.506;9.582;2022-10-22T12:44:02;7.05;;;2.45;;
72621;SDS011;60665;53.506;9.582;2022-10-22T12:46:29;9.18;;;2.47;;
72621;SDS011;60665;53.506;9.582;2022-10-22T12:48:58;11.90;;;2.30;;
72621;SDS011;60665;53.506;9.582;2022-10-22T12:51:24;7.93;;;2.17;;
72621;SDS011;60665;53.506;9.582;2022-10-22T12:53:50;8.20;;;1.95;;
72621;SDS011;60665;53.506;9.582;2022-10-22T12:56:35;7.03;;;1.98;;
72621;SDS011;60665;53.506;9.582;2022-10-22T12:59:03;9.30;;;2.53;;
72621;SDS011;60665;53.506;9.582;2022-10-22T13:01:35;6.07;;;1.80;;
72621;SDS011;60665;53.506;9.582;2022-10-22T13:04:54;10.65;;;2.20;;
72621;SDS011;60665;53.506;9.582;2022-10-22T13:09:38;9.05;;;1.85;;
72621;SDS011;60665;53.506;9.582;2022-10-22T13:12:05;8.02;;;2.22;;
72621;SDS011;60665;53.506;9.582;2022-10-22T13:14:35;10.98;;;2.20;;
72621;SDS011;60665;53.506;9.582;2022-10-22T13:22:35;9.48;;;2.00;;
72621;SDS011;60665;53.506;9.582;2022-10-22T13:27:50;8.82;;;2.22;;
72621;SDS011;60665;53.506;9.582;2022-10-22T13:30:28;6.72;;;2.00;;
72621;SDS011;60665;53.506;9.582;2022-10-22T13:33:05;7.68;;;1.98;;
72621;SDS011;60665;53.506;9.582;2022-10-22T13:35:46;6.35;;;1.70;;
72621;SDS011;60665;53.506;9.582;2022-10-22T13:38:17;6.25;;;1.73;;
72621;SDS011;60665;53.506;9.582;2022-10-22T13:40:44;10.48;;;2.10;;
72621;SDS011;60665;53.506;9.582;2022-10-22T13:43:10;8.00;;;2.05;;
72621;SDS011;60665;53.506;9.582;2022-10-22T13:45:36;9.13;;;2.13;;
72621;SDS011;60665;53.506;9.582;2022-10-22T13:48:01;8.02;;;1.60;;
72621;SDS011;60665;53.506;9.582;2022-10-22T13:50:27;7.75;;;2.35;;
72621;SDS011;60665;53.506;9.582;2022-10-22T13:52:53;6.65;;;1.70;;
72621;SDS011;60665;53.506;9.582;2022-10-22T13:55:21;8.65;;;1.85;;
72621;SDS011;60665;53.506;9.582;2022-10-22T13:57:49;6.88;;;2.05;;
72621;SDS011;60665;53.506;9.582;2022-10-22T14:00:16;8.25;;;1.75;;
72621;SDS011;60665;53.506;9.582;2022-10-22T14:02:43;8.65;;;2.05;;
72621;SDS011;60665;53.506;9.582;2022-10-22T14:05:09;10.15;;;1.90;;
72621;SDS011;60665;53.506;9.582;2022-10-22T14:07:35;7.38;;;1.80;;
72621;SDS011;60665;53.506;9.582;2022-10-22T14:10:01;6.55;;;1.75;;
72621;SDS011;60665;53.506;9.582;2022-10-22T14:12:30;6.18;;;1.85;;
72621;SDS011;60665;53.506;9.582;2022-10-22T14:14:55;7.18;;;2.05;;
72621;SDS011;60665;53.506;9.582;2022-10-22T14:17:21;9.30;;;2.10;;
72621;SDS011;60665;53.506;9.582;2022-10-22T14:19:46;8.95;;;2.33;;
72621;SDS011;60665;53.506;9.582;2022-10-22T14:22:14;10.05;;;1.92;;
72621;SDS011;60665;53.506;9.582;2022-10-22T14:24:40;8.43;;;1.85;;
72621;SDS011;60665;53.506;9.582;2022-10-22T14:27:07;8.65;;;1.70;;
72621;SDS011;60665;53.506;9.582;2022-10-22T14:29:34;6.75;;;2.15;;
72621;SDS011;60665;53.506;9.582;2022-10-22T14:31:59;9.38;;;2.00;;
72621;SDS011;60665;53.506;9.582;2022-10-22T14:34:25;8.13;;;1.90;;
72621;SDS011;60665;53.506;9.582;2022-10-22T14:36:50;9.40;;;1.95;;
72621;SDS011;60665;53.506;9.582;2022-10-22T14:39:15;7.40;;;1.83;;
72621;SDS011;60665;53.506;9.582;2022-10-22T14:41:42;7.43;;;2.30;;
72621;SDS011;60665;53.506;9.582;2022-10-22T14:44:08;6.63;;;2.35;;
72621;SDS011;60665;53.506;9.582;2022-10-22T14:46:36;9.77;;;2.20;;
72621;SDS011;60665;53.506;9.582;2022-10-22T14:49:03;11.50;;;2.55;;
72621;SDS011;60665;53.506;9.582;2022-10-22T14:51:29;6.60;;;2.25;;
72621;SDS011;60665;53.506;9.582;2022-10-22T14:53:54;10.15;;;2.20;;
72621;SDS011;60665;53.506;9.582;2022-10-22T14:56:20;10.32;;;2.08;;
72621;SDS011;60665;53.506;9.582;2022-10-22T14:58:45;8.90;;;1.90;;
72621;SDS011;60665;53.506;9.582;2022-10-22T15:01:11;9.27;;;2.88;;
72621;SDS011;60665;53.506;9.582;2022-10-22T15:03:36;8.50;;;2.67;;
72621;SDS011;60665;53.506;9.582;2022-10-22T15:06:02;7.68;;;2.75;;
72621;SDS011;60665;53.506;9.582;2022-10-22T15:08:27;8.35;;;2.97;;
72621;SDS011;60665;53.506;9.582;2022-10-22T15:10:57;8.38;;;2.60;;
72621;SDS011;60665;53.506;9.582;2022-10-22T15:13:43;11.45;;;2.50;;
72621;SDS011;60665;53.506;9.582;2022-10-22T15:16:09;6.53;;;2.17;;
72621;SDS011;60665;53.506;9.582;2022-10-22T15:18:35;6.45;;;2.55;;
72621;SDS011;60665;53.506;9.582;2022-10-22T15:21:01;6.68;;;2.50;;
72621;SDS011;60665;53.506;9.582;2022-10-22T15:23:29;7.00;;;2.85;;
72621;SDS011;60665;53.506;9.582;2022-10-22T15:25:54;8.00;;;2.95;;
72621;SDS011;60665;53.506;9.582;2022-10-22T15:28:20;7.88;;;2.20;;
72621;SDS011;60665;53.506;9.582;2022-10-22T15:30:54;8.63;;;2.72;;
72621;SDS011;60665;53.506;9.582;2022-10-22T15:33:20;7.85;;;2.03;;
72621;SDS011;60665;53.506;9.582;2022-10-22T15:35:46;9.85;;;2.65;;
72621;SDS011;60665;53.506;9.582;2022-10-22T15:38:11;7.95;;;2.30;;
72621;SDS011;60665;53.506;9.582;2022-10-22T15:40:36;10.73;;;2.50;;
72621;SDS011;60665;53.506;9.582;2022-10-22T15:43:02;8.38;;;2.50;;
72621;SDS011;60665;53.506;9.582;2022-10-22T15:45:27;7.35;;;2.42;;
72621;SDS011;60665;53.506;9.582;2022-10-22T15:47:52;9.52;;;2.63;;
72621;SDS011;60665;53.506;9.582;2022-10-22T15:50:18;9.38;;;2.80;;
72621;SDS011;60665;53.506;9.582;2022-10-22T15:52:43;7.57;;;2.35;;
72621;SDS011;60665;53.506;9.582;2022-10-22T15:55:09;8.02;;;2.50;;
72621;SDS011;60665;53.506;9.582;2022-10-22T15:57:35;7.18;;;2.30;;
72621;SDS011;60665;53.506;9.582;2022-10-22T16:00:01;11.48;;;2.85;;
72621;SDS011;60665;53.506;9.582;2022-10-22T16:02:26;7.13;;;2.42;;
72621;SDS011;60665;53.506;9.582;2022-10-22T16:04:52;8.93;;;2.45;;
72621;SDS011;60665;53.506;9.582;2022-10-22T16:07:17;9.07;;;2.40;;
72621;SDS011;60665;53.506;9.582;2022-10-22T16:09:42;12.38;;;2.95;;
72621;SDS011;60665;53.506;9.582;2022-10-22T16:12:08;6.65;;;2.20;;
72621;SDS011;60665;53.506;9.582;2022-10-22T16:14:33;5.15;;;2.25;;
72621;SDS011;60665;53.506;9.582;2022-10-22T16:16:58;7.43;;;2.30;;
72621;SDS011;60665;53.506;9.582;2022-10-22T16:19:25;9.50;;;2.42;;
72621;SDS011;60665;53.506;9.582;2022-10-22T16:21:52;7.82;;;2.40;;
72621;SDS011;60665;53.506;9.582;2022-10-22T16:24:18;7.75;;;2.40;;
72621;SDS011;60665;53.506;9.582;2022-10-22T16:26:44;6.95;;;2.40;;
72621;SDS011;60665;53.506;9.582;2022-10-22T16:29:10;8.68;;;2.35;;
72621;SDS011;60665;53.506;9.582;2022-10-22T16:31:36;5.90;;;2.05;;
72621;SDS011;60665;53.506;9.582;2022-10-22T16:34:02;7.68;;;2.25;;
72621;SDS011;60665;53.506;9.582;2022-10-22T16:36:27;7.40;;;2.20;;
72621;SDS011;60665;53.506;9.582;2022-10-22T16:38:53;7.47;;;2.22;;
72621;SDS011;60665;53.506;9.582;2022-10-22T16:41:20;8.13;;;2.42;;
72621;SDS011;60665;53.506;9.582;2022-10-22T16:43:48;7.60;;;2.17;;
72621;SDS011;60665;53.506;9.582;2022-10-22T16:46:15;7.00;;;2.10;;
72621;SDS011;60665;53.506;9.582;2022-10-22T16:48:49;9.73;;;2.35;;
72621;SDS011;60665;53.506;9.582;2022-10-22T16:51:16;8.95;;;2.35;;
72621;SDS011;60665;53.506;9.582;2022-10-22T16:53:43;7.13;;;2.22;;
72621;SDS011;60665;53.506;9.582;2022-10-22T16:56:09;9.68;;;2.13;;
72621;SDS011;60665;53.506;9.582;2022-10-22T16:58:36;8.40;;;2.10;;
72621;SDS011;60665;53.506;9.582;2022-10-22T17:01:05;9.40;;;2.35;;
72621;SDS011;60665;53.506;9.582;2022-10-22T17:03:31;7.85;;;2.40;;